sensor_id;sensor_type;location;lat;lon;timestamp;temperature;humidity
47857;DHT22;33618;49.972;8.242;2022-10-17T00:00:38;13.40;99.90
47857;DHT22;33618;49.972;8.242;2022-10-17T00:03:05;13.40;99.90
47857;DHT22;33618;49.972;8.242;2022-10-17T00:05:32;13.40;99.90
47857;DHT22;33618;49.972;8.242;2022-10-17T00:07:59;13.30;99.90
47857;DHT22;33618;49.972;8.242;2022-10-17T00:10:27;13.40;99.90
47857;DHT22;33618;49.972;8.242;2022-10-17T00:12:54;13.40;99.90
47857;DHT22;33618;49.972;8.242;2022-10-17T00:15:21;13.40;99.90
47857;DHT22;33618;49.972;8.242;2022-10-17T00:17:48;13.40;99.90
47857;DHT22;33618;49.972;8.242;2022-10-17T00:20:15;13.30;99.90
47857;DHT22;33618;49.972;8.242;2022-10-17T00:22:42;13.40;99.90
47857;DHT22;33618;49.972;8.242;2022-10-17T00:40:51;13.30;99.90
47857;DHT22;33618;49.972;8.242;2022-10-17T01:10:10;13.10;99.90
47857;DHT22;33618;49.972;8.242;2022-10-17T01:12:47;13.00;99.90
47857;DHT22;33618;49.972;8.242;2022-10-17T01:20:52;13.00;99.90
47857;DHT22;33618;49.972;8.242;2022-10-17T01:34:37;12.90;99.90
47857;DHT22;33618;49.972;8.242;2022-10-17T01:37:13;12.90;99.90
47857;DHT22;33618;49.972;8.242;2022-10-17T01:39:56;12.90;99.90
47857;DHT22;33618;49.972;8.242;2022-10-17T01:42:33;12.80;99.90
47857;DHT22;33618;49.972;8.242;2022-10-17T01:47:35;12.70;99.90
47857;DHT22;33618;49.972;8.242;2022-10-17T01:50:09;12.70;99.90
47857;DHT22;33618;49.972;8.242;2022-10-17T01:52:47;12.70;99.90
47857;DHT22;33618;49.972;8.242;2022-10-17T01:55:38;12.70;99.90
47857;DHT22;33618;49.972;8.242;2022-10-17T01:58:13;12.70;99.90
47857;DHT22;33618;49.972;8.242;2022-10-17T02:00:44;12.70;99.90
47857;DHT22;33618;49.972;8.242;2022-10-17T02:03:16;12.70;99.90
47857;DHT22;33618;49.972;8.242;2022-10-17T02:05:44;12.60;99.90
47857;DHT22;33618;49.972;8.242;2022-10-17T02:08:12;12.60;99.90
47857;DHT22;33618;49.972;8.242;2022-10-17T02:11:02;12.60;99.90
47857;DHT22;33618;49.972;8.242;2022-10-17T02:22:24;12.50;99.90
47857;DHT22;33618;49.972;8.242;2022-10-17T02:30:15;12.50;99.90
47857;DHT22;33618;49.972;8.242;2022-10-17T02:32:54;12.50;99.90
47857;DHT22;33618;49.972;8.242;2022-10-17T02:35:24;12.50;99.90
47857;DHT22;33618;49.972;8.242;2022-10-17T02:37:54;12.40;99.90
47857;DHT22;33618;49.972;8.242;2022-10-17T02:40:23;12.40;99.90
47857;DHT22;33618;49.972;8.242;2022-10-17T02:42:52;12.40;99.90
47857;DHT22;33618;49.972;8.242;2022-10-17T02:45:22;12.40;99.90
47857;DHT22;33618;49.972;8.242;2022-10-17T02:48:05;12.40;99.90
47857;DHT22;33618;49.972;8.242;2022-10-17T02:50:42;12.40;99.90
47857;DHT22;33618;49.972;8.242;2022-10-17T02:53:14;12.40;99.90
47857;DHT22;33618;49.972;8.242;2022-10-17T02:55:50;12.40;99.90
47857;DHT22;33618;49.972;8.242;2022-10-17T02:58:24;12.40;99.90
47857;DHT22;33618;49.972;8.242;2022-10-17T03:00:53;12.40;99.90
47857;DHT22;33618;49.972;8.242;2022-10-17T03:03:28;12.30;99.90
47857;DHT22;33618;49.972;8.242;2022-10-17T03:05:56;12.30;99.90
47857;DHT22;33618;49.972;8.242;2022-10-17T03:08:23;12.30;99.90
47857;DHT22;33618;49.972;8.242;2022-10-17T03:10:51;12.30;99.90
47857;DHT22;33618;49.972;8.242;2022-10-17T03:13:19;12.30;99.90
47857;DHT22;33618;49.972;8.242;2022-10-17T03:15:46;12.30;99.90
47857;DHT22;33618;49.972;8.242;2022-10-17T03:18:13;12.30;99.90
47857;DHT22;33618;49.972;8.242;2022-10-17T03:20:40;12.30;99.90
47857;DHT22;33618;49.972;8.242;2022-10-17T03:23:07;12.30;99.90
47857;DHT22;33618;49.972;8.242;2022-10-17T03:25:34;12.30;99.90
47857;DHT22;33618;49.972;8.242;2022-10-17T03:28:02;12.30;99.90
47857;DHT22;33618;49.972;8.242;2022-10-17T03:30:31;12.30;99.90
47857;DHT22;33618;49.972;8.242;2022-10-17T03:32:59;12.30;99.90
47857;DHT22;33618;49.972;8.242;2022-10-17T03:35:27;12.30;99.90
47857;DHT22;33618;49.972;8.242;2022-10-17T03:37:54;12.30;99.90
47857;DHT22;33618;49.972;8.242;2022-10-17T03:40:22;12.20;99.90
47857;DHT22;33618;49.972;8.242;2022-10-17T03:42:49;12.30;99.90
47857;DHT22;33618;49.972;8.242;2022-10-17T03:45:16;12.30;99.90
47857;DHT22;33618;49.972;8.242;2022-10-17T03:47:44;12.30;99.90
47857;DHT22;33618;49.972;8.242;2022-10-17T03:50:11;12.30;99.90
47857;DHT22;33618;49.972;8.242;2022-10-17T03:52:39;12.20;99.90
47857;DHT22;33618;49.972;8.242;2022-10-17T03:55:06;12.20;99.90
47857;DHT22;33618;49.972;8.242;2022-10-17T03:57:34;12.30;99.90
47857;DHT22;33618;49.972;8.242;2022-10-17T04:00:03;12.30;99.90
47857;DHT22;33618;49.972;8.242;2022-10-17T04:02:40;12.30;99.90
47857;DHT22;33618;49.972;8.242;2022-10-17T04:05:07;12.40;99.90
47857;DHT22;33618;49.972;8.242;2022-10-17T04:07:34;12.30;99.90
47857;DHT22;33618;49.972;8.242;2022-10-17T04:10:12;12.40;99.90
47857;DHT22;33618;49.972;8.242;2022-10-17T04:12:39;12.30;99.90
47857;DHT22;33618;49.972;8.242;2022-10-17T04:15:11;12.40;99.90
47857;DHT22;33618;49.972;8.242;2022-10-17T04:17:38;12.30;99.90
47857;DHT22;33618;49.972;8.242;2022-10-17T04:20:05;12.40;99.90
47857;DHT22;33618;49.972;8.242;2022-10-17T04:22:33;12.30;99.90
47857;DHT22;33618;49.972;8.242;2022-10-17T04:25:05;12.30;99.90
47857;DHT22;33618;49.972;8.242;2022-10-17T04:27:32;12.30;99.90
47857;DHT22;33618;49.972;8.242;2022-10-17T04:30:00;12.30;99.90
47857;DHT22;33618;49.972;8.242;2022-10-17T04:32:27;12.20;99.90
47857;DHT22;33618;49.972;8.242;2022-10-17T04:34:54;12.20;99.90
47857;DHT22;33618;49.972;8.242;2022-10-17T04:37:28;12.20;99.90
47857;DHT22;33618;49.972;8.242;2022-10-17T04:39:56;12.20;99.90
47857;DHT22;33618;49.972;8.242;2022-10-17T04:42:23;12.20;99.90
47857;DHT22;33618;49.972;8.242;2022-10-17T04:44:50;12.20;99.90
47857;DHT22;33618;49.972;8.242;2022-10-17T04:47:24;12.20;99.90
47857;DHT22;33618;49.972;8.242;2022-10-17T04:49:51;12.10;99.90
47857;DHT22;33618;49.972;8.242;2022-10-17T04:52:18;12.10;99.90
47857;DHT22;33618;49.972;8.242;2022-10-17T04:54:46;12.10;99.90
47857;DHT22;33618;49.972;8.242;2022-10-17T04:57:21;12.10;99.90
47857;DHT22;33618;49.972;8.242;2022-10-17T04:59:48;12.10;99.90
47857;DHT22;33618;49.972;8.242;2022-10-17T05:02:16;12.10;99.90
47857;DHT22;33618;49.972;8.242;2022-10-17T05:04:54;12.10;99.90
47857;DHT22;33618;49.972;8.242;2022-10-17T05:07:21;12.00;99.90
47857;DHT22;33618;49.972;8.242;2022-10-17T05:09:56;12.00;99.90
47857;DHT22;33618;49.972;8.242;2022-10-17T05:12:25;12.00;99.90
47857;DHT22;33618;49.972;8.242;2022-10-17T05:14:52;12.00;99.90
47857;DHT22;33618;49.972;8.242;2022-10-17T05:17:29;11.90;99.90
47857;DHT22;33618;49.972;8.242;2022-10-17T05:19:56;11.90;99.90
47857;DHT22;33618;49.972;8.242;2022-10-17T05:22:31;11.90;99.90
47857;DHT22;33618;49.972;8.242;2022-10-17T05:27:40;11.90;99.90
47857;DHT22;33618;49.972;8.242;2022-10-17T05:30:15;11.90;99.90
47857;DHT22;33618;49.972;8.242;2022-10-17T05:32:42;11.90;99.90
47857;DHT22;33618;49.972;8.242;2022-10-17T05:35:09;11.90;99.90
47857;DHT22;33618;49.972;8.242;2022-10-17T05:37:36;11.90;99.90
47857;DHT22;33618;49.972;8.242;2022-10-17T05:40:05;11.90;99.90
47857;DHT22;33618;49.972;8.242;2022-10-17T05:42:32;11.80;99.90
47857;DHT22;33618;49.972;8.242;2022-10-17T05:45:00;11.80;99.90
47857;DHT22;33618;49.972;8.242;2022-10-17T05:47:27;11.80;99.90
47857;DHT22;33618;49.972;8.242;2022-10-17T05:49:55;11.80;99.90
47857;DHT22;33618;49.972;8.242;2022-10-17T05:52:22;11.80;99.90
47857;DHT22;33618;49.972;8.242;2022-10-17T05:54:49;11.80;99.90
47857;DHT22;33618;49.972;8.242;2022-10-17T05:57:26;11.80;99.90
47857;DHT22;33618;49.972;8.242;2022-10-17T05:59:53;11.80;99.90
47857;DHT22;33618;49.972;8.242;2022-10-17T06:02:29;11.90;99.90
47857;DHT22;33618;49.972;8.242;2022-10-17T06:04:57;11.90;99.90
47857;DHT22;33618;49.972;8.242;2022-10-17T06:07:24;11.90;99.90
47857;DHT22;33618;49.972;8.242;2022-10-17T06:09:56;11.90;99.90
47857;DHT22;33618;49.972;8.242;2022-10-17T06:12:24;11.90;99.90
47857;DHT22;33618;49.972;8.242;2022-10-17T06:14:52;11.90;99.90
47857;DHT22;33618;49.972;8.242;2022-10-17T06:17:19;12.00;99.90
47857;DHT22;33618;49.972;8.242;2022-10-17T06:19:57;12.00;99.90
47857;DHT22;33618;49.972;8.242;2022-10-17T06:22:24;12.00;99.90
47857;DHT22;33618;49.972;8.242;2022-10-17T06:24:52;12.00;99.90
47857;DHT22;33618;49.972;8.242;2022-10-17T06:27:20;12.00;99.90
47857;DHT22;33618;49.972;8.242;2022-10-17T06:29:47;12.10;99.90
47857;DHT22;33618;49.972;8.242;2022-10-17T06:32:14;12.10;99.90
47857;DHT22;33618;49.972;8.242;2022-10-17T06:34:41;12.20;99.90
47857;DHT22;33618;49.972;8.242;2022-10-17T06:37:08;12.10;99.90
47857;DHT22;33618;49.972;8.242;2022-10-17T06:39:35;12.10;99.90
47857;DHT22;33618;49.972;8.242;2022-10-17T06:42:02;12.10;99.90
47857;DHT22;33618;49.972;8.242;2022-10-17T06:44:32;12.20;99.90
47857;DHT22;33618;49.972;8.242;2022-10-17T06:47:00;12.20;99.90
47857;DHT22;33618;49.972;8.242;2022-10-17T06:49:27;12.30;99.90
47857;DHT22;33618;49.972;8.242;2022-10-17T06:51:55;12.30;99.90
47857;DHT22;33618;49.972;8.242;2022-10-17T06:54:27;12.30;99.90
47857;DHT22;33618;49.972;8.242;2022-10-17T06:56:53;12.30;99.90
47857;DHT22;33618;49.972;8.242;2022-10-17T06:59:21;12.40;99.90
47857;DHT22;33618;49.972;8.242;2022-10-17T07:01:49;12.40;99.90
47857;DHT22;33618;49.972;8.242;2022-10-17T07:04:15;12.50;99.90
47857;DHT22;33618;49.972;8.242;2022-10-17T07:06:50;12.50;99.90
47857;DHT22;33618;49.972;8.242;2022-10-17T07:09:17;12.60;99.90
47857;DHT22;33618;49.972;8.242;2022-10-17T07:11:44;12.70;99.90
47857;DHT22;33618;49.972;8.242;2022-10-17T07:14:21;12.80;99.90
47857;DHT22;33618;49.972;8.242;2022-10-17T07:16:48;12.90;99.90
47857;DHT22;33618;49.972;8.242;2022-10-17T07:19:15;13.00;99.90
47857;DHT22;33618;49.972;8.242;2022-10-17T07:21:49;13.10;99.90
47857;DHT22;33618;49.972;8.242;2022-10-17T07:24:16;13.30;99.90
47857;DHT22;33618;49.972;8.242;2022-10-17T07:26:43;13.30;99.90
47857;DHT22;33618;49.972;8.242;2022-10-17T07:29:10;13.40;99.90
47857;DHT22;33618;49.972;8.242;2022-10-17T07:31:48;13.50;99.90
47857;DHT22;33618;49.972;8.242;2022-10-17T07:34:15;13.60;99.90
47857;DHT22;33618;49.972;8.242;2022-10-17T07:36:47;13.70;99.90
47857;DHT22;33618;49.972;8.242;2022-10-17T07:39:14;13.80;99.90
47857;DHT22;33618;49.972;8.242;2022-10-17T07:41:41;14.00;99.90
47857;DHT22;33618;49.972;8.242;2022-10-17T07:44:08;14.00;99.90
47857;DHT22;33618;49.972;8.242;2022-10-17T07:46:35;14.20;99.90
47857;DHT22;33618;49.972;8.242;2022-10-17T07:49:02;14.40;99.90
47857;DHT22;33618;49.972;8.242;2022-10-17T07:51:36;14.60;99.90
47857;DHT22;33618;49.972;8.242;2022-10-17T07:54:04;14.80;99.90
47857;DHT22;33618;49.972;8.242;2022-10-17T08:05:38;15.40;99.90
47857;DHT22;33618;49.972;8.242;2022-10-17T08:08:05;15.70;99.90
47857;DHT22;33618;49.972;8.242;2022-10-17T08:10:32;15.80;99.90
47857;DHT22;33618;49.972;8.242;2022-10-17T08:13:05;16.00;99.90
47857;DHT22;33618;49.972;8.242;2022-10-17T08:15:32;16.30;99.90
47857;DHT22;33618;49.972;8.242;2022-10-17T08:17:59;16.70;99.90
47857;DHT22;33618;49.972;8.242;2022-10-17T08:20:27;17.20;99.90
47857;DHT22;33618;49.972;8.242;2022-10-17T08:22:54;17.50;99.90
47857;DHT22;33618;49.972;8.242;2022-10-17T08:25:28;17.70;99.90
47857;DHT22;33618;49.972;8.242;2022-10-17T08:27:55;18.00;99.90
47857;DHT22;33618;49.972;8.242;2022-10-17T08:30:23;18.30;99.90
47857;DHT22;33618;49.972;8.242;2022-10-17T08:32:50;18.40;99.90
47857;DHT22;33618;49.972;8.242;2022-10-17T08:35:17;18.60;99.90
47857;DHT22;33618;49.972;8.242;2022-10-17T08:37:44;18.90;99.90
47857;DHT22;33618;49.972;8.242;2022-10-17T08:40:38;19.20;99.90
47857;DHT22;33618;49.972;8.242;2022-10-17T08:43:24;19.50;99.90
47857;DHT22;33618;49.972;8.242;2022-10-17T08:46:02;19.60;99.90
47857;DHT22;33618;49.972;8.242;2022-10-17T08:48:35;19.70;99.90
47857;DHT22;33618;49.972;8.242;2022-10-17T08:51:36;19.60;99.90
47857;DHT22;33618;49.972;8.242;2022-10-17T08:54:19;19.60;99.90
47857;DHT22;33618;49.972;8.242;2022-10-17T08:56:53;19.80;99.90
47857;DHT22;33618;49.972;8.242;2022-10-17T08:59:25;20.10;99.90
47857;DHT22;33618;49.972;8.242;2022-10-17T09:04:57;20.70;99.90
47857;DHT22;33618;49.972;8.242;2022-10-17T09:10:59;21.90;99.90
47857;DHT22;33618;49.972;8.242;2022-10-17T09:18:49;22.50;99.90
47857;DHT22;33618;49.972;8.242;2022-10-17T09:21:37;22.90;99.90
47857;DHT22;33618;49.972;8.242;2022-10-17T09:24:12;23.10;99.90
47857;DHT22;33618;49.972;8.242;2022-10-17T09:26:43;23.10;99.90
47857;DHT22;33618;49.972;8.242;2022-10-17T09:29:19;22.80;99.90
47857;DHT22;33618;49.972;8.242;2022-10-17T09:32:02;22.70;99.90
47857;DHT22;33618;49.972;8.242;2022-10-17T09:34:31;22.40;99.90
47857;DHT22;33618;49.972;8.242;2022-10-17T09:36:59;22.00;99.90
47857;DHT22;33618;49.972;8.242;2022-10-17T09:39:30;22.00;99.90
47857;DHT22;33618;49.972;8.242;2022-10-17T09:41:59;21.90;99.90
47857;DHT22;33618;49.972;8.242;2022-10-17T09:45:02;22.00;99.90
47857;DHT22;33618;49.972;8.242;2022-10-17T09:47:42;21.80;99.90
47857;DHT22;33618;49.972;8.242;2022-10-17T09:50:35;21.40;99.90
47857;DHT22;33618;49.972;8.242;2022-10-17T09:53:41;21.30;99.90
47857;DHT22;33618;49.972;8.242;2022-10-17T09:56:18;21.40;99.90
47857;DHT22;33618;49.972;8.242;2022-10-17T09:58:47;21.40;99.90
47857;DHT22;33618;49.972;8.242;2022-10-17T10:04:16;21.50;99.90
47857;DHT22;33618;49.972;8.242;2022-10-17T10:07:08;21.50;99.90
47857;DHT22;33618;49.972;8.242;2022-10-17T10:09:37;21.40;99.90
47857;DHT22;33618;49.972;8.242;2022-10-17T10:12:20;21.40;99.90
47857;DHT22;33618;49.972;8.242;2022-10-17T10:14:47;21.50;99.90
47857;DHT22;33618;49.972;8.242;2022-10-17T10:17:38;21.50;99.90
47857;DHT22;33618;49.972;8.242;2022-10-17T10:20:28;21.70;99.90
47857;DHT22;33618;49.972;8.242;2022-10-17T10:23:14;21.90;99.90
47857;DHT22;33618;49.972;8.242;2022-10-17T10:26:16;22.20;99.90
47857;DHT22;33618;49.972;8.242;2022-10-17T10:28:53;22.20;99.90
47857;DHT22;33618;49.972;8.242;2022-10-17T10:31:37;22.50;99.90
47857;DHT22;33618;49.972;8.242;2022-10-17T10:34:19;22.60;99.90
47857;DHT22;33618;49.972;8.242;2022-10-17T10:36:52;23.00;99.90
47857;DHT22;33618;49.972;8.242;2022-10-17T10:41:59;24.10;99.90
47857;DHT22;33618;49.972;8.242;2022-10-17T10:44:30;24.30;99.20
47857;DHT22;33618;49.972;8.242;2022-10-17T10:47:17;24.20;99.80
47857;DHT22;33618;49.972;8.242;2022-10-17T10:49:46;24.50;99.20
47857;DHT22;33618;49.972;8.242;2022-10-17T10:52:53;24.60;98.20
47857;DHT22;33618;49.972;8.242;2022-10-17T10:55:27;24.80;98.60
47857;DHT22;33618;49.972;8.242;2022-10-17T10:58:00;24.90;96.00
47857;DHT22;33618;49.972;8.242;2022-10-17T11:00:31;24.90;97.80
47857;DHT22;33618;49.972;8.242;2022-10-17T11:03:18;25.10;96.10
47857;DHT22;33618;49.972;8.242;2022-10-17T11:05:54;25.10;96.60
47857;DHT22;33618;49.972;8.242;2022-10-17T11:08:33;25.20;96.50
47857;DHT22;33618;49.972;8.242;2022-10-17T11:11:16;25.30;94.90
47857;DHT22;33618;49.972;8.242;2022-10-17T11:14:02;25.60;94.90
47857;DHT22;33618;49.972;8.242;2022-10-17T11:17:14;26.00;94.00
47857;DHT22;33618;49.972;8.242;2022-10-17T11:20:09;25.60;92.00
47857;DHT22;33618;49.972;8.242;2022-10-17T11:22:42;25.10;91.90
47857;DHT22;33618;49.972;8.242;2022-10-17T11:25:35;24.90;92.60
47857;DHT22;33618;49.972;8.242;2022-10-17T11:28:10;24.80;92.90
47857;DHT22;33618;49.972;8.242;2022-10-17T11:30:55;24.90;93.20
47857;DHT22;33618;49.972;8.242;2022-10-17T11:33:27;24.80;92.80
47857;DHT22;33618;49.972;8.242;2022-10-17T11:36:03;25.00;92.50
47857;DHT22;33618;49.972;8.242;2022-10-17T11:38:42;24.80;92.90
47857;DHT22;33618;49.972;8.242;2022-10-17T11:41:42;24.80;92.80
47857;DHT22;33618;49.972;8.242;2022-10-17T11:49:36;24.90;92.30
47857;DHT22;33618;49.972;8.242;2022-10-17T11:55:16;25.10;92.70
47857;DHT22;33618;49.972;8.242;2022-10-17T12:07:16;25.30;92.20
47857;DHT22;33618;49.972;8.242;2022-10-17T12:09:59;25.50;92.30
47857;DHT22;33618;49.972;8.242;2022-10-17T12:12:32;25.50;91.40
47857;DHT22;33618;49.972;8.242;2022-10-17T12:17:59;25.70;91.50
47857;DHT22;33618;49.972;8.242;2022-10-17T12:20:32;25.70;91.80
47857;DHT22;33618;49.972;8.242;2022-10-17T12:25:34;26.00;91.40
47857;DHT22;33618;49.972;8.242;2022-10-17T12:49:44;24.60;93.50
47857;DHT22;33618;49.972;8.242;2022-10-17T12:58:01;25.80;91.50
47857;DHT22;33618;49.972;8.242;2022-10-17T13:00:54;26.20;91.50
47857;DHT22;33618;49.972;8.242;2022-10-17T13:03:44;26.00;91.10
47857;DHT22;33618;49.972;8.242;2022-10-17T13:06:27;26.50;91.10
47857;DHT22;33618;49.972;8.242;2022-10-17T13:09:01;26.50;91.10
47857;DHT22;33618;49.972;8.242;2022-10-17T13:11:33;26.70;90.70
47857;DHT22;33618;49.972;8.242;2022-10-17T13:14:02;26.90;90.40
47857;DHT22;33618;49.972;8.242;2022-10-17T13:16:51;26.90;90.40
47857;DHT22;33618;49.972;8.242;2022-10-17T13:19:21;27.10;90.00
47857;DHT22;33618;49.972;8.242;2022-10-17T13:24:42;27.70;88.80
47857;DHT22;33618;49.972;8.242;2022-10-17T13:27:23;27.90;89.00
47857;DHT22;33618;49.972;8.242;2022-10-17T13:29:50;28.20;89.30
47857;DHT22;33618;49.972;8.242;2022-10-17T13:32:17;28.20;87.90
47857;DHT22;33618;49.972;8.242;2022-10-17T13:34:44;28.40;87.60
47857;DHT22;33618;49.972;8.242;2022-10-17T13:37:13;28.40;87.20
47857;DHT22;33618;49.972;8.242;2022-10-17T13:39:43;28.50;87.50
47857;DHT22;33618;49.972;8.242;2022-10-17T13:42:29;28.10;87.90
47857;DHT22;33618;49.972;8.242;2022-10-17T13:44:57;28.40;88.20
47857;DHT22;33618;49.972;8.242;2022-10-17T13:47:27;28.20;88.40
47857;DHT22;33618;49.972;8.242;2022-10-17T13:49:55;28.00;86.70
47857;DHT22;33618;49.972;8.242;2022-10-17T13:52:26;27.70;87.70
47857;DHT22;33618;49.972;8.242;2022-10-17T13:54:55;27.90;88.00
47857;DHT22;33618;49.972;8.242;2022-10-17T13:57:31;28.40;87.40
47857;DHT22;33618;49.972;8.242;2022-10-17T14:00:02;28.20;86.60
47857;DHT22;33618;49.972;8.242;2022-10-17T14:02:39;28.40;86.10
47857;DHT22;33618;49.972;8.242;2022-10-17T14:05:11;27.80;86.20
47857;DHT22;33618;49.972;8.242;2022-10-17T14:07:52;27.40;87.40
47857;DHT22;33618;49.972;8.242;2022-10-17T14:10:41;27.30;87.60
47857;DHT22;33618;49.972;8.242;2022-10-17T14:13:23;27.50;88.40
47857;DHT22;33618;49.972;8.242;2022-10-17T14:15:54;27.80;87.60
47857;DHT22;33618;49.972;8.242;2022-10-17T14:18:31;28.10;87.60
47857;DHT22;33618;49.972;8.242;2022-10-17T14:21:04;27.90;88.50
47857;DHT22;33618;49.972;8.242;2022-10-17T14:24:11;28.10;89.00
47857;DHT22;33618;49.972;8.242;2022-10-17T14:26:50;27.80;87.70
47857;DHT22;33618;49.972;8.242;2022-10-17T14:29:29;27.90;88.50
47857;DHT22;33618;49.972;8.242;2022-10-17T14:34:33;26.40;89.60
47857;DHT22;33618;49.972;8.242;2022-10-17T14:37:01;26.00;91.00
47857;DHT22;33618;49.972;8.242;2022-10-17T14:39:28;25.80;90.90
47857;DHT22;33618;49.972;8.242;2022-10-17T14:41:55;25.50;91.60
47857;DHT22;33618;49.972;8.242;2022-10-17T14:44:31;25.10;92.60
47857;DHT22;33618;49.972;8.242;2022-10-17T14:47:04;24.90;92.70
47857;DHT22;33618;49.972;8.242;2022-10-17T14:50:06;24.70;93.50
47857;DHT22;33618;49.972;8.242;2022-10-17T14:52:34;24.60;93.70
47857;DHT22;33618;49.972;8.242;2022-10-17T14:55:24;24.50;93.90
47857;DHT22;33618;49.972;8.242;2022-10-17T14:57:51;24.30;94.50
47857;DHT22;33618;49.972;8.242;2022-10-17T15:00:19;24.30;95.10
47857;DHT22;33618;49.972;8.242;2022-10-17T15:02:47;24.50;95.30
47857;DHT22;33618;49.972;8.242;2022-10-17T15:05:15;24.80;94.80
47857;DHT22;33618;49.972;8.242;2022-10-17T15:07:42;25.10;94.30
47857;DHT22;33618;49.972;8.242;2022-10-17T15:10:32;25.50;93.80
47857;DHT22;33618;49.972;8.242;2022-10-17T15:13:00;25.90;92.80
47857;DHT22;33618;49.972;8.242;2022-10-17T15:15:48;26.00;92.70
47857;DHT22;33618;49.972;8.242;2022-10-17T15:18:18;25.80;92.80
47857;DHT22;33618;49.972;8.242;2022-10-17T15:20:45;25.80;92.60
47857;DHT22;33618;49.972;8.242;2022-10-17T15:23:12;25.60;92.90
47857;DHT22;33618;49.972;8.242;2022-10-17T15:25:39;25.70;92.80
47857;DHT22;33618;49.972;8.242;2022-10-17T15:28:06;25.50;92.30
47857;DHT22;33618;49.972;8.242;2022-10-17T15:30:35;25.40;93.30
47857;DHT22;33618;49.972;8.242;2022-10-17T15:33:02;25.20;93.40
47857;DHT22;33618;49.972;8.242;2022-10-17T15:35:30;25.10;93.70
47857;DHT22;33618;49.972;8.242;2022-10-17T15:37:56;25.00;94.30
47857;DHT22;33618;49.972;8.242;2022-10-17T15:40:26;25.00;94.40
47857;DHT22;33618;49.972;8.242;2022-10-17T15:42:56;24.90;95.30
47857;DHT22;33618;49.972;8.242;2022-10-17T15:45:24;24.60;95.30
47857;DHT22;33618;49.972;8.242;2022-10-17T15:47:56;24.40;95.60
47857;DHT22;33618;49.972;8.242;2022-10-17T15:50:26;24.20;97.00
47857;DHT22;33618;49.972;8.242;2022-10-17T15:52:55;24.00;97.10
47857;DHT22;33618;49.972;8.242;2022-10-17T15:55:22;23.80;97.90
47857;DHT22;33618;49.972;8.242;2022-10-17T15:57:50;23.60;98.70
47857;DHT22;33618;49.972;8.242;2022-10-17T16:00:20;23.50;98.80
47857;DHT22;33618;49.972;8.242;2022-10-17T16:02:47;23.40;99.40
47857;DHT22;33618;49.972;8.242;2022-10-17T16:05:18;23.20;99.90
47857;DHT22;33618;49.972;8.242;2022-10-17T16:07:49;23.00;99.90
47857;DHT22;33618;49.972;8.242;2022-10-17T16:10:16;22.90;99.90
47857;DHT22;33618;49.972;8.242;2022-10-17T16:12:43;22.70;99.90
47857;DHT22;33618;49.972;8.242;2022-10-17T16:17:37;22.40;99.90
47857;DHT22;33618;49.972;8.242;2022-10-17T16:20:04;22.20;99.90
47857;DHT22;33618;49.972;8.242;2022-10-17T16:22:33;22.20;99.90
47857;DHT22;33618;49.972;8.242;2022-10-17T16:25:04;22.10;99.90
47857;DHT22;33618;49.972;8.242;2022-10-17T16:27:37;22.00;99.90
47857;DHT22;33618;49.972;8.242;2022-10-17T16:30:06;21.90;99.90
47857;DHT22;33618;49.972;8.242;2022-10-17T16:32:33;21.80;99.90
47857;DHT22;33618;49.972;8.242;2022-10-17T16:35:00;21.60;99.90
47857;DHT22;33618;49.972;8.242;2022-10-17T16:37:27;21.50;99.90
47857;DHT22;33618;49.972;8.242;2022-10-17T16:39:54;21.40;99.90
47857;DHT22;33618;49.972;8.242;2022-10-17T16:42:22;21.40;99.90
47857;DHT22;33618;49.972;8.242;2022-10-17T16:44:49;21.30;99.90
47857;DHT22;33618;49.972;8.242;2022-10-17T16:47:17;21.40;99.90
47857;DHT22;33618;49.972;8.242;2022-10-17T16:49:44;21.30;99.90
47857;DHT22;33618;49.972;8.242;2022-10-17T16:52:11;21.20;99.90
47857;DHT22;33618;49.972;8.242;2022-10-17T16:54:38;21.10;99.90
47857;DHT22;33618;49.972;8.242;2022-10-17T16:57:06;21.10;99.90
47857;DHT22;33618;49.972;8.242;2022-10-17T16:59:32;21.00;99.90
47857;DHT22;33618;49.972;8.242;2022-10-17T17:01:59;21.00;99.90
47857;DHT22;33618;49.972;8.242;2022-10-17T17:04:26;21.00;99.90
47857;DHT22;33618;49.972;8.242;2022-10-17T17:06:53;21.00;99.90
47857;DHT22;33618;49.972;8.242;2022-10-17T17:09:20;20.90;99.90
47857;DHT22;33618;49.972;8.242;2022-10-17T17:11:47;20.90;99.90
47857;DHT22;33618;49.972;8.242;2022-10-17T17:14:14;20.90;99.90
47857;DHT22;33618;49.972;8.242;2022-10-17T17:16:41;20.90;99.90
47857;DHT22;33618;49.972;8.242;2022-10-17T17:19:12;20.90;99.90
47857;DHT22;33618;49.972;8.242;2022-10-17T17:21:39;21.00;99.90
47857;DHT22;33618;49.972;8.242;2022-10-17T17:24:06;21.00;99.90
47857;DHT22;33618;49.972;8.242;2022-10-17T17:26:34;20.90;99.90
47857;DHT22;33618;49.972;8.242;2022-10-17T17:29:04;20.90;99.90
47857;DHT22;33618;49.972;8.242;2022-10-17T17:31:33;20.90;99.90
47857;DHT22;33618;49.972;8.242;2022-10-17T17:34:01;20.90;99.90
47857;DHT22;33618;49.972;8.242;2022-10-17T17:36:31;20.90;99.90
47857;DHT22;33618;49.972;8.242;2022-10-17T17:39:00;20.90;99.90
47857;DHT22;33618;49.972;8.242;2022-10-17T17:41:29;20.90;99.90
47857;DHT22;33618;49.972;8.242;2022-10-17T17:43:56;20.80;99.90
47857;DHT22;33618;49.972;8.242;2022-10-17T17:46:24;20.80;99.90
47857;DHT22;33618;49.972;8.242;2022-10-17T17:48:52;20.70;99.90
47857;DHT22;33618;49.972;8.242;2022-10-17T17:51:21;20.60;99.90
47857;DHT22;33618;49.972;8.242;2022-10-17T17:53:54;20.60;99.90
47857;DHT22;33618;49.972;8.242;2022-10-17T17:56:24;20.50;99.90
47857;DHT22;33618;49.972;8.242;2022-10-17T17:58:59;20.50;99.90
47857;DHT22;33618;49.972;8.242;2022-10-17T18:01:28;20.50;99.90
47857;DHT22;33618;49.972;8.242;2022-10-17T18:03:57;20.40;99.90
47857;DHT22;33618;49.972;8.242;2022-10-17T18:06:27;20.40;99.90
47857;DHT22;33618;49.972;8.242;2022-10-17T18:08:56;20.30;99.90
47857;DHT22;33618;49.972;8.242;2022-10-17T18:11:25;20.30;99.90
47857;DHT22;33618;49.972;8.242;2022-10-17T18:13:54;20.20;99.90
47857;DHT22;33618;49.972;8.242;2022-10-17T18:16:23;20.10;99.90
47857;DHT22;33618;49.972;8.242;2022-10-17T18:18:49;20.00;99.90
47857;DHT22;33618;49.972;8.242;2022-10-17T18:21:16;20.00;99.90
47857;DHT22;33618;49.972;8.242;2022-10-17T18:23:45;20.00;99.90
47857;DHT22;33618;49.972;8.242;2022-10-17T18:26:12;20.00;99.90
47857;DHT22;33618;49.972;8.242;2022-10-17T18:28:41;20.00;99.90
47857;DHT22;33618;49.972;8.242;2022-10-17T18:31:18;20.00;99.90
47857;DHT22;33618;49.972;8.242;2022-10-17T18:33:57;19.90;99.90
47857;DHT22;33618;49.972;8.242;2022-10-17T18:36:26;19.90;99.90
47857;DHT22;33618;49.972;8.242;2022-10-17T18:38:55;19.80;99.90
47857;DHT22;33618;49.972;8.242;2022-10-17T18:41:23;19.70;99.90
47857;DHT22;33618;49.972;8.242;2022-10-17T18:43:52;19.50;99.90